Happy Valentine's Day! 

Flight Track Log - Related Links

Times and Time Zones

All times are in EDT time to prevent confusion due to time zone crossing. See the FLG3872 flight status page for this flight to view local times or setup timezone preferences in your user account.


Time Position Orientation Groundspeed Altitude Reporting Facility
EDT Latitude Longitude Course Direction KTS MPH feet Rate Location/Type
Tue 08:30:40 PM 42.2036 -83.3583 211° Southwest 149 171 1,300  Level Cleveland Center
Tue 08:31:41 PM 42.1694 -83.3933 217° Southwest 180 207 3,200 1,770 Climbing Cleveland Center
Tue 08:32:42 PM 42.1222 -83.4472 220° Southwest 248 285 4,900 2,066 Climbing Cleveland Center
Tue 08:33:43 PM 42.0606 -83.5003 213° Southwest 270 311 7,400 2,357 Climbing Cleveland Center
Tue 08:34:00 PM 41.9744 -83.7176 211° Southwest  Level Estimated
Tue 08:34:34 PM 42.0072 -83.5397 209° Southwest 294 338 9,300  Level Cleveland Center
Tue 08:35:00 PM 41.9147 -83.8083 217° Southwest  Level Estimated
Tue 08:35:33 PM 41.9372 -83.5925 209° Southwest 302 348 11,700  Level Cleveland Center
Tue 08:36:00 PM 41.8550 -83.8987 211° Southwest  Level Estimated
Tue 08:36:34 PM 41.8669 -83.6475 210° Southwest 302 348 13,600  Level Cleveland Center
Tue 08:37:34 PM 41.7858 -83.7106 210° Southwest 316 364 14,000 200 Climbing Cleveland Center
Tue 08:38:34 PM 41.6922 -83.7811 209° Southwest 354 407 14,000  Level Cleveland Center
Tue 08:39:33 PM 41.5961 -83.8597 211° Southwest 389 448 14,000  Level Cleveland Center
Tue 08:40:33 PM 41.5003 -83.9325 210° Southwest 401 461 14,000 -554 Level Cleveland Center
Tue 08:42:48 PM 41.3081 -84.0844 211° Southwest 386 444 12,200 -883 Descending Chicago Center
Tue 08:43:50 PM 41.2386 -84.1778 225° Southwest 370 426 11,100 -581 Descending Chicago Center
Tue 08:44:52 PM 41.2000 -84.3272 251° West 354 407 11,000 -48 Descending Chicago Center
Tue 08:45:54 PM 41.1661 -84.4572 251° West 367 422 11,000  Level Chicago Center
Tue 08:46:56 PM 41.1333 -84.5897 252° West 375 432 11,000 -435 Level Chicago Center
Tue 08:47:58 PM 41.1033 -84.7044 251° West 333 383 10,100 -1,355 Descending Chicago Center
Tue 08:49:00 PM 41.0797 -84.7978 251° West 276 318 8,200 -1,790 Descending Chicago Center
Tue 08:50:02 PM 41.0717 -84.8983 264° West 277 319 6,400 -1,548 Descending Chicago Center
Tue 08:51:04 PM 41.0717 -84.9928 270° West 264 304 5,000 -1,790 Descending Chicago Center
Tue 08:52:06 PM 41.0597 -85.1003 262° West 253 291 2,700 -1,161 Descending Chicago Center
Tue 08:53:08 PM 41.0800 -85.1678 292° West 233 268 2,600 -48 Descending Chicago Center
Tue 08:54:10 PM 41.0800 -85.2172 270° West 187 215 2,600  Level Chicago Center

Login

Don't have an account? Register now (free) for customized features, flight alerts, and more!